Wind From: 11-12-2017 07:30 Until: 12-12-2017 06:00 warning for: Wind Level: Orange info button

Power and phone distribution networks may be disrupted for relatively long periods., Roofs and chimneys can be damaged. , Tree branches may break. , Vehicles can be deported. , Traffic may be disrupted, particularly on secondary roads in forest areas. Limit your trips. , Limit your speed in highway driving, especially if you drive a vehicle or hitch sensitive to wind. , Do not go for walks in forests or along the coast., In town, be vigilant against possible falling objects., Do not work on roofs and do not touch any electrical line fallen on the ground., Store or secure sensitive objects to wind or likely to be damaged., Always install power generators outside buildings. 


Meteo18 Weather Cam more information Meteo18 Weather Cam


Thunder radar more information blitzortung!


Rain radar more information rain snow radar


Visit our other weather sites:

Template documentation
and downloads

And another site



Weather Underground History page Text

Daily Summary for April 12, 2017 Units:  Both    English   Metric
« Previous Day
Next Day »
Daily Weekly Monthly Yearly Custom
  High: Low: Average:
Temperature: 66.4 °F /  19.1 °C 37 °F /  2.8 °C 53.1 °F /  11.7 °C
Dew Point: 44.4 °F /  6.9 °C 32.5 °F /  0.3 °C 39 °F /  3.9 °C
Humidity: 85 % 41 % 61 %
Wind Speed: 11 mph /  17.7 km/h - 1.8 mph /  2.9 km/h
Wind Gust: 13 mph /  20.9 km/h - -
Wind:- - SW
Pressure: 30.3 in /  1026.3 hPa 30.1 in /  1018.5 hPa -
Precipitation: 0 in /  0.0 mm    
Historical Graphs
 
 
Tabular Data for April 12, 2017
Time Temperature Dew Point Pressure Wind Wind Speed Wind Gust Humidity Rainfall Rate (Hourly)
00:02 46.9 °F /  8.3 °C 36.9 °F /  2.7 °C 30.3 in /  1026.3 hPa WNW 1 mph /  1.6 km/h 2 mph /  3.2 km/h 68 % 0 in /  0.0 mm
00:12 46.9 °F /  8.3 °C 36.5 °F /  2.5 °C 30.3 in /  1026.0 hPa Calm   2 mph /  3.2 km/h 67 % 0 in /  0.0 mm
00:17 46.9 °F /  8.3 °C 36.5 °F /  2.5 °C 30.3 in /  1026.0 hPa Calm   2 mph /  3.2 km/h 67 % 0 in /  0.0 mm
00:22 46.8 °F /  8.2 °C 36.3 °F /  2.4 °C 30.3 in /  1026.0 hPa NW 1 mph /  1.6 km/h 2 mph /  3.2 km/h 67 % 0 in /  0.0 mm
00:32 46 °F /  7.8 °C 36.1 °F /  2.3 °C 30.3 in /  1026.0 hPa NNW 1 mph /  1.6 km/h 2 mph /  3.2 km/h 68 % 0 in /  0.0 mm
00:37 45.9 °F /  7.7 °C 36 °F /  2.2 °C 30.3 in /  1026.0 hPa Calm   2 mph /  3.2 km/h 68 % 0 in /  0.0 mm
00:42 45.9 °F /  7.7 °C 36.3 °F /  2.4 °C 30.3 in /  1026.0 hPa Calm   2 mph /  3.2 km/h 69 % 0 in /  0.0 mm
00:47 45.7 °F /  7.6 °C 35.8 °F /  2.1 °C 30.3 in /  1026.0 hPa NW 1 mph /  1.6 km/h 2 mph /  3.2 km/h 68 % 0 in /  0.0 mm
00:52 45.7 °F /  7.6 °C 35.8 °F /  2.1 °C 30.3 in /  1026.0 hPa NW 1 mph /  1.6 km/h 2 mph /  3.2 km/h 68 % 0 in /  0.0 mm
00:57 45.9 °F /  7.7 °C 35.6 °F /  2.0 °C 30.3 in /  1026.0 hPa NW 1 mph /  1.6 km/h 2 mph /  3.2 km/h 67 % 0 in /  0.0 mm
01:02 46 °F /  7.8 °C 35.2 °F /  1.8 °C 30.3 in /  1026.0 hPa Calm   2 mph /  3.2 km/h 66 % 0 in /  0.0 mm
01:07 45.9 °F /  7.7 °C 35.1 °F /  1.7 °C 30.3 in /  1026.0 hPa NW 1 mph /  1.6 km/h 2 mph /  3.2 km/h 66 % 0 in /  0.0 mm
01:12 45.9 °F /  7.7 °C 35.1 °F /  1.7 °C 30.3 in /  1026.0 hPa NW 1 mph /  1.6 km/h 2 mph /  3.2 km/h 66 % 0 in /  0.0 mm
01:17 45.7 °F /  7.6 °C 35.1 °F /  1.7 °C 30.3 in /  1026.0 hPa NNW 1 mph /  1.6 km/h 2 mph /  3.2 km/h 66 % 0 in /  0.0 mm
01:22 45.5 °F /  7.5 °C 34.9 °F /  1.6 °C 30.3 in /  1026.0 hPa North 1 mph /  1.6 km/h 2 mph /  3.2 km/h 66 % 0 in /  0.0 mm
01:32 44.2 °F /  6.8 °C 34.3 °F /  1.3 °C 30.3 in /  1026.0 hPa NW 2 mph /  3.2 km/h 2 mph /  3.2 km/h 68 % 0 in /  0.0 mm
01:37 43.3 °F /  6.3 °C 34.5 °F /  1.4 °C 30.3 in /  1025.6 hPa WNW 1 mph /  1.6 km/h 2 mph /  3.2 km/h 71 % 0 in /  0.0 mm
01:42 42.6 °F /  5.9 °C 34.5 °F /  1.4 °C 30.3 in /  1026.0 hPa WNW 2 mph /  3.2 km/h 2 mph /  3.2 km/h 73 % 0 in /  0.0 mm
01:47 42.6 °F /  5.9 °C 34.5 °F /  1.4 °C 30.3 in /  1025.6 hPa WNW 1 mph /  1.6 km/h 2 mph /  3.2 km/h 73 % 0 in /  0.0 mm
01:52 42.3 °F /  5.7 °C 34.5 °F /  1.4 °C 30.3 in /  1025.6 hPa Calm   2 mph /  3.2 km/h 74 % 0 in /  0.0 mm
01:57 42.4 °F /  5.8 °C 34.3 °F /  1.3 °C 30.3 in /  1025.6 hPa Calm   2 mph /  3.2 km/h 73 % 0 in /  0.0 mm
02:02 42.3 °F /  5.7 °C 34.5 °F /  1.4 °C 30.3 in /  1025.6 hPa WNW 1 mph /  1.6 km/h 1 mph /  1.6 km/h 74 % 0 in /  0.0 mm
02:07 41.5 °F /  5.3 °C 34.5 °F /  1.4 °C 30.3 in /  1025.6 hPa WNW 1 mph /  1.6 km/h 1 mph /  1.6 km/h 76 % 0 in /  0.0 mm
02:12 41.4 °F /  5.2 °C 34.3 °F /  1.3 °C 30.3 in /  1025.6 hPa Calm   1 mph /  1.6 km/h 76 % 0 in /  0.0 mm
02:17 41.4 °F /  5.2 °C 34.3 °F /  1.3 °C 30.3 in /  1025.6 hPa Calm   1 mph /  1.6 km/h 76 % 0 in /  0.0 mm
02:22 41.5 °F /  5.3 °C 34.2 °F /  1.2 °C 30.3 in /  1025.3 hPa Calm   1 mph /  1.6 km/h 75 % 0 in /  0.0 mm
02:32 41.7 °F /  5.4 °C 34 °F /  1.1 °C 30.3 in /  1025.3 hPa WNW 1 mph /  1.6 km/h 1 mph /  1.6 km/h 74 % 0 in /  0.0 mm
02:37 41.7 °F /  5.4 °C 34.3 °F /  1.3 °C 30.3 in /  1025.3 hPa WNW 1 mph /  1.6 km/h 1 mph /  1.6 km/h 75 % 0 in /  0.0 mm
02:42 41.4 °F /  5.2 °C 34.3 °F /  1.3 °C 30.3 in /  1025.3 hPa Calm   1 mph /  1.6 km/h 76 % 0 in /  0.0 mm
02:47 41.4 °F /  5.2 °C 34.3 °F /  1.3 °C 30.3 in /  1025.3 hPa Calm   1 mph /  1.6 km/h 76 % 0 in /  0.0 mm
02:52 41.4 °F /  5.2 °C 34.3 °F /  1.3 °C 30.3 in /  1025.3 hPa Calm   1 mph /  1.6 km/h 76 % 0 in /  0.0 mm
02:57 41.5 °F /  5.3 °C 34.2 °F /  1.2 °C 30.3 in /  1024.9 hPa Calm   1 mph /  1.6 km/h 75 % 0 in /  0.0 mm
03:02 41.7 °F /  5.4 °C 34 °F /  1.1 °C 30.3 in /  1024.9 hPa WNW 1 mph /  1.6 km/h 1 mph /  1.6 km/h 74 % 0 in /  0.0 mm
03:07 41.7 °F /  5.4 °C 34 °F /  1.1 °C 30.3 in /  1024.9 hPa WNW 1 mph /  1.6 km/h 2 mph /  3.2 km/h 74 % 0 in /  0.0 mm
03:12 42.3 °F /  5.7 °C 34.2 °F /  1.2 °C 30.3 in /  1024.9 hPa Calm   2 mph /  3.2 km/h 73 % 0 in /  0.0 mm
03:17 42.6 °F /  5.9 °C 34.2 °F /  1.2 °C 30.3 in /  1024.9 hPa North 1 mph /  1.6 km/h 2 mph /  3.2 km/h 72 % 0 in /  0.0 mm
03:22 43.2 °F /  6.2 °C 34 °F /  1.1 °C 30.3 in /  1024.9 hPa NW 1 mph /  1.6 km/h 2 mph /  3.2 km/h 70 % 0 in /  0.0 mm
03:32 42.3 °F /  5.7 °C 33.8 °F /  1.0 °C 30.3 in /  1024.9 hPa Calm   2 mph /  3.2 km/h 72 % 0 in /  0.0 mm
03:37 41.5 °F /  5.3 °C 33.6 °F /  0.9 °C 30.3 in /  1024.9 hPa Calm   2 mph /  3.2 km/h 73 % 0 in /  0.0 mm
03:42 42.3 °F /  5.7 °C 34.2 °F /  1.2 °C 30.3 in /  1024.9 hPa Calm   2 mph /  3.2 km/h 73 % 0 in /  0.0 mm
03:52 41.2 °F /  5.1 °C 33.8 °F /  1.0 °C 30.3 in /  1024.6 hPa NW 1 mph /  1.6 km/h 2 mph /  3.2 km/h 75 % 0 in /  0.0 mm
03:57 41.5 °F /  5.3 °C 34.2 °F /  1.2 °C 30.3 in /  1024.6 hPa Calm   2 mph /  3.2 km/h 75 % 0 in /  0.0 mm
04:02 41.4 °F /  5.2 °C 34 °F /  1.1 °C 30.3 in /  1024.6 hPa Calm   2 mph /  3.2 km/h 75 % 0 in /  0.0 mm
04:07 40.6 °F /  4.8 °C 33.6 °F /  0.9 °C 30.3 in /  1024.6 hPa Calm   1 mph /  1.6 km/h 76 % 0 in /  0.0 mm
04:12 40.5 °F /  4.7 °C 33.8 °F /  1.0 °C 30.3 in /  1024.6 hPa Calm   1 mph /  1.6 km/h 77 % 0 in /  0.0 mm
04:17 40.6 °F /  4.8 °C 34 °F /  1.1 °C 30.3 in /  1024.6 hPa Calm     77 % 0 in /  0.0 mm
04:22 40.6 °F /  4.8 °C 34 °F /  1.1 °C 30.3 in /  1024.3 hPa Calm     77 % 0 in /  0.0 mm
04:32 41.2 °F /  5.1 °C 34.2 °F /  1.2 °C 30.3 in /  1024.3 hPa Calm     76 % 0 in /  0.0 mm
04:37 41.7 °F /  5.4 °C 34 °F /  1.1 °C 30.3 in /  1024.3 hPa Calm     74 % 0 in /  0.0 mm
04:42 41.5 °F /  5.3 °C 34.2 °F /  1.2 °C 30.3 in /  1024.3 hPa WNW 2 mph /  3.2 km/h 2 mph /  3.2 km/h 75 % 0 in /  0.0 mm
04:47 41 °F /  5.0 °C 34 °F /  1.1 °C 30.3 in /  1024.3 hPa WNW 1 mph /  1.6 km/h 2 mph /  3.2 km/h 76 % 0 in /  0.0 mm
04:52 41 °F /  5.0 °C 34 °F /  1.1 °C 30.3 in /  1024.3 hPa Calm   2 mph /  3.2 km/h 76 % 0 in /  0.0 mm
04:57 40.8 °F /  4.9 °C 33.8 °F /  1.0 °C 30.3 in /  1024.3 hPa Calm   2 mph /  3.2 km/h 76 % 0 in /  0.0 mm
05:02 40.6 °F /  4.8 °C 33.6 °F /  0.9 °C 30.3 in /  1024.3 hPa Calm   2 mph /  3.2 km/h 76 % 0 in /  0.0 mm
05:12 40.5 °F /  4.7 °C 33.4 °F /  0.8 °C 30.3 in /  1024.3 hPa Calm   1 mph /  1.6 km/h 76 % 0 in /  0.0 mm
05:17 40.3 °F /  4.6 °C 33.6 °F /  0.9 °C 30.3 in /  1024.3 hPa Calm   1 mph /  1.6 km/h 77 % 0 in /  0.0 mm
05:22 39.9 °F /  4.4 °C 33.3 °F /  0.7 °C 30.3 in /  1024.3 hPa Calm   1 mph /  1.6 km/h 77 % 0 in /  0.0 mm
05:27 39.4 °F /  4.1 °C 33.1 °F /  0.6 °C 30.3 in /  1024.3 hPa Calm   1 mph /  1.6 km/h 78 % 0 in /  0.0 mm
05:32 38.7 °F /  3.7 °C 33.1 °F /  0.6 °C 30.3 in /  1024.3 hPa Calm   1 mph /  1.6 km/h 80 % 0 in /  0.0 mm
05:37 37.9 °F /  3.3 °C 32.7 °F /  0.4 °C 30.2 in /  1023.9 hPa Calm   1 mph /  1.6 km/h 81 % 0 in /  0.0 mm
05:42 37.6 °F /  3.1 °C 32.5 °F /  0.3 °C 30.2 in /  1023.9 hPa Calm   1 mph /  1.6 km/h 82 % 0 in /  0.0 mm
05:47 37.2 °F /  2.9 °C 32.5 °F /  0.3 °C 30.2 in /  1023.9 hPa WNW 2 mph /  3.2 km/h 2 mph /  3.2 km/h 83 % 0 in /  0.0 mm
05:52 37.6 °F /  3.1 °C 33.3 °F /  0.7 °C 30.2 in /  1023.9 hPa WNW 1 mph /  1.6 km/h 2 mph /  3.2 km/h 84 % 0 in /  0.0 mm
06:02 38.5 °F /  3.6 °C 33.8 °F /  1.0 °C 30.2 in /  1023.9 hPa Calm   3 mph /  4.8 km/h 83 % 0 in /  0.0 mm
06:12 38.5 °F /  3.6 °C 33.1 °F /  0.6 °C 30.2 in /  1023.9 hPa Calm   2 mph /  3.2 km/h 81 % 0 in /  0.0 mm
06:17 38.1 °F /  3.4 °C 33.1 °F /  0.6 °C 30.2 in /  1023.9 hPa WNW 1 mph /  1.6 km/h 1 mph /  1.6 km/h 82 % 0 in /  0.0 mm
06:22 37.9 °F /  3.3 °C 32.7 °F /  0.4 °C 30.2 in /  1023.9 hPa Calm   1 mph /  1.6 km/h 81 % 0 in /  0.0 mm
06:27 37.8 °F /  3.2 °C 32.7 °F /  0.4 °C 30.2 in /  1023.9 hPa Calm   1 mph /  1.6 km/h 82 % 0 in /  0.0 mm
06:32 37.9 °F /  3.3 °C 33.3 °F /  0.7 °C 30.2 in /  1023.9 hPa Calm   1 mph /  1.6 km/h 83 % 0 in /  0.0 mm
06:37 37.9 °F /  3.3 °C 33.3 °F /  0.7 °C 30.2 in /  1023.9 hPa Calm   1 mph /  1.6 km/h 83 % 0 in /  0.0 mm
06:42 37.9 °F /  3.3 °C 33.3 °F /  0.7 °C 30.2 in /  1023.9 hPa Calm   1 mph /  1.6 km/h 83 % 0 in /  0.0 mm
06:47 37.9 °F /  3.3 °C 32.9 °F /  0.5 °C 30.2 in /  1023.9 hPa Calm   1 mph /  1.6 km/h 82 % 0 in /  0.0 mm
06:52 37.8 °F /  3.2 °C 32.7 °F /  0.4 °C 30.2 in /  1023.9 hPa Calm   1 mph /  1.6 km/h 82 % 0 in /  0.0 mm
06:57 37.6 °F /  3.1 °C 32.9 °F /  0.5 °C 30.2 in /  1023.9 hPa Calm   1 mph /  1.6 km/h 83 % 0 in /  0.0 mm
07:02 37.4 °F /  3.0 °C 33.1 °F /  0.6 °C 30.2 in /  1023.9 hPa Calm   1 mph /  1.6 km/h 84 % 0 in /  0.0 mm
07:12 37.2 °F /  2.9 °C 32.9 °F /  0.5 °C 30.2 in /  1023.9 hPa Calm   1 mph /  1.6 km/h 84 % 0 in /  0.0 mm
07:17 37.2 °F /  2.9 °C 32.9 °F /  0.5 °C 30.2 in /  1023.6 hPa Calm   1 mph /  1.6 km/h 84 % 0 in /  0.0 mm
07:22 37 °F /  2.8 °C 32.9 °F /  0.5 °C 30.2 in /  1023.9 hPa Calm   1 mph /  1.6 km/h 85 % 0 in /  0.0 mm
07:32 37 °F /  2.8 °C 32.9 °F /  0.5 °C 30.2 in /  1023.9 hPa Calm   1 mph /  1.6 km/h 85 % 0 in /  0.0 mm
07:37 37.6 °F /  3.1 °C 33.4 °F /  0.8 °C 30.2 in /  1023.9 hPa WNW 1 mph /  1.6 km/h 1 mph /  1.6 km/h 85 % 0 in /  0.0 mm
07:42 38.1 °F /  3.4 °C 33.8 °F /  1.0 °C 30.2 in /  1023.9 hPa Calm   1 mph /  1.6 km/h 84 % 0 in /  0.0 mm
07:52 39.6 °F /  4.2 °C 34.2 °F /  1.2 °C 30.3 in /  1024.3 hPa Calm   1 mph /  1.6 km/h 81 % 0 in /  0.0 mm
07:57 39.7 °F /  4.3 °C 34.2 °F /  1.2 °C 30.3 in /  1024.3 hPa Calm     80 % 0 in /  0.0 mm
08:07 40.6 °F /  4.8 °C 34.9 °F /  1.6 °C 30.3 in /  1024.3 hPa Calm     80 % 0 in /  0.0 mm
08:12 41.9 °F /  5.5 °C 36.9 °F /  2.7 °C 30.3 in /  1024.3 hPa Calm     82 % 0 in /  0.0 mm
08:17 43 °F /  6.1 °C 36.3 °F /  2.4 °C 30.3 in /  1024.3 hPa Calm     77 % 0 in /  0.0 mm
08:22 43 °F /  6.1 °C 36 °F /  2.2 °C 30.3 in /  1024.3 hPa Calm     76 % 0 in /  0.0 mm
08:27 42.6 °F /  5.9 °C 36.5 °F /  2.5 °C 30.3 in /  1024.3 hPa Calm     79 % 0 in /  0.0 mm
08:32 43.2 °F /  6.2 °C 37.4 °F /  3.0 °C 30.3 in /  1024.3 hPa Calm     80 % 0 in /  0.0 mm
08:42 45.3 °F /  7.4 °C 38.8 °F /  3.8 °C 30.3 in /  1024.6 hPa NNW 1 mph /  1.6 km/h 1 mph /  1.6 km/h 78 % 0 in /  0.0 mm
08:47 46 °F /  7.8 °C 38.8 °F /  3.8 °C 30.3 in /  1024.6 hPa Calm   3 mph /  4.8 km/h 76 % 0 in /  0.0 mm
08:52 46.9 °F /  8.3 °C 38.3 °F /  3.5 °C 30.3 in /  1024.6 hPa Calm   3 mph /  4.8 km/h 72 % 0 in /  0.0 mm
08:59 47.7 °F /  8.7 °C 39 °F /  3.9 °C 30.3 in /  1024.6 hPa Calm   3 mph /  4.8 km/h 72 % 0 in /  0.0 mm
09:07 49.1 °F /  9.5 °C 40.5 °F /  4.7 °C 30.3 in /  1024.6 hPa Calm   1 mph /  1.6 km/h 72 % 0 in /  0.0 mm
09:12 50.2 °F /  10.1 °C 41.2 °F /  5.1 °C 30.3 in /  1024.3 hPa Calm   1 mph /  1.6 km/h 71 % 0 in /  0.0 mm
09:17 50.7 °F /  10.4 °C 40.1 °F /  4.5 °C 30.3 in /  1024.6 hPa Calm     67 % 0 in /  0.0 mm
09:22 51.4 °F /  10.8 °C 40.5 °F /  4.7 °C 30.3 in /  1024.3 hPa Calm     66 % 0 in /  0.0 mm
09:32 52 °F /  11.1 °C 39.7 °F /  4.3 °C 30.3 in /  1024.3 hPa North 2 mph /  3.2 km/h   63 % 0 in /  0.0 mm
09:42 52.5 °F /  11.4 °C 40.6 °F /  4.8 °C 30.3 in /  1024.3 hPa Calm   3 mph /  4.8 km/h 64 % 0 in /  0.0 mm
09:47 53.1 °F /  11.7 °C 41.2 °F /  5.1 °C 30.3 in /  1024.3 hPa NE 1 mph /  1.6 km/h 4 mph /  6.4 km/h 64 % 0 in /  0.0 mm
09:52 53.4 °F /  11.9 °C 41.2 °F /  5.1 °C 30.3 in /  1024.3 hPa NE 2 mph /  3.2 km/h 4 mph /  6.4 km/h 63 % 0 in /  0.0 mm
09:57 53.8 °F /  12.1 °C 40.6 °F /  4.8 °C 30.3 in /  1024.3 hPa Calm   3 mph /  4.8 km/h 61 % 0 in /  0.0 mm
10:02 54.3 °F /  12.4 °C 41.2 °F /  5.1 °C 30.3 in /  1024.3 hPa Calm   3 mph /  4.8 km/h 61 % 0 in /  0.0 mm
10:07 54.9 °F /  12.7 °C 41.2 °F /  5.1 °C 30.3 in /  1024.3 hPa North 1 mph /  1.6 km/h 2 mph /  3.2 km/h 60 % 0 in /  0.0 mm
10:12 54.9 °F /  12.7 °C 40.3 °F /  4.6 °C 30.3 in /  1024.3 hPa Calm   2 mph /  3.2 km/h 58 % 0 in /  0.0 mm
10:17 55.4 °F /  13.0 °C 41.4 °F /  5.2 °C 30.3 in /  1024.3 hPa Calm   3 mph /  4.8 km/h 59 % 0 in /  0.0 mm
10:22 55.2 °F /  12.9 °C 38.8 °F /  3.8 °C 30.3 in /  1024.3 hPa East 2 mph /  3.2 km/h 3 mph /  4.8 km/h 54 % 0 in /  0.0 mm
10:32 55.4 °F /  13.0 °C 39 °F /  3.9 °C 30.3 in /  1024.3 hPa Calm   4 mph /  6.4 km/h 54 % 0 in /  0.0 mm
10:37 55.2 °F /  12.9 °C 38.8 °F /  3.8 °C 30.3 in /  1024.3 hPa SE 1 mph /  1.6 km/h 4 mph /  6.4 km/h 54 % 0 in /  0.0 mm
10:42 55.8 °F /  13.2 °C 38.8 °F /  3.8 °C 30.3 in /  1024.3 hPa SE 1 mph /  1.6 km/h 4 mph /  6.4 km/h 53 % 0 in /  0.0 mm
10:47 56.5 °F /  13.6 °C 40.1 °F /  4.5 °C 30.3 in /  1024.3 hPa Calm   4 mph /  6.4 km/h 54 % 0 in /  0.0 mm
10:52 57.2 °F /  14.0 °C 40.3 °F /  4.6 °C 30.3 in /  1024.3 hPa ESE 1 mph /  1.6 km/h 4 mph /  6.4 km/h 53 % 0 in /  0.0 mm
10:57 57 °F /  13.9 °C 39.6 °F /  4.2 °C 30.3 in /  1024.3 hPa SE 1 mph /  1.6 km/h 4 mph /  6.4 km/h 52 % 0 in /  0.0 mm
11:02 57 °F /  13.9 °C 39 °F /  3.9 °C 30.2 in /  1023.9 hPa Calm   4 mph /  6.4 km/h 51 % 0 in /  0.0 mm
11:12 57.4 °F /  14.1 °C 38.3 °F /  3.5 °C 30.2 in /  1023.9 hPa Calm   4 mph /  6.4 km/h 49 % 0 in /  0.0 mm
11:17 58.1 °F /  14.5 °C 40.1 °F /  4.5 °C 30.2 in /  1023.9 hPa East 2 mph /  3.2 km/h 4 mph /  6.4 km/h 51 % 0 in /  0.0 mm
11:22 58.3 °F /  14.6 °C 39.2 °F /  4.0 °C 30.2 in /  1023.9 hPa Calm   4 mph /  6.4 km/h 49 % 0 in /  0.0 mm
11:32 59.4 °F /  15.2 °C 39.7 °F /  4.3 °C 30.2 in /  1023.9 hPa Calm   3 mph /  4.8 km/h 48 % 0 in /  0.0 mm
11:37 58.8 °F /  14.9 °C 39.2 °F /  4.0 °C 30.2 in /  1023.9 hPa Calm   3 mph /  4.8 km/h 48 % 0 in /  0.0 mm
11:42 59.2 °F /  15.1 °C 39.6 °F /  4.2 °C 30.2 in /  1023.9 hPa ESE 2 mph /  3.2 km/h 3 mph /  4.8 km/h 48 % 0 in /  0.0 mm
11:52 60.4 °F /  15.8 °C 39.6 °F /  4.2 °C 30.2 in /  1023.9 hPa SE 2 mph /  3.2 km/h 3 mph /  4.8 km/h 46 % 0 in /  0.0 mm
11:57 60.3 °F /  15.7 °C 39.4 °F /  4.1 °C 30.2 in /  1023.9 hPa SE 1 mph /  1.6 km/h 3 mph /  4.8 km/h 46 % 0 in /  0.0 mm
12:02 59.7 °F /  15.4 °C 39.9 °F /  4.4 °C 30.2 in /  1023.6 hPa South 1 mph /  1.6 km/h 5 mph /  8.0 km/h 48 % 0 in /  0.0 mm
12:12 59.9 °F /  15.5 °C 39.6 °F /  4.2 °C 30.2 in /  1023.6 hPa ENE 4 mph /  6.4 km/h 5 mph /  8.0 km/h 47 % 0 in /  0.0 mm
12:17 59.7 °F /  15.4 °C 40.5 °F /  4.7 °C 30.2 in /  1023.6 hPa East 1 mph /  1.6 km/h 5 mph /  8.0 km/h 49 % 0 in /  0.0 mm
12:22 59.7 °F /  15.4 °C 39.4 °F /  4.1 °C 30.2 in /  1023.6 hPa North 3 mph /  4.8 km/h 5 mph /  8.0 km/h 47 % 0 in /  0.0 mm
12:27 59.5 °F /  15.3 °C 39.4 °F /  4.1 °C 30.2 in /  1023.2 hPa Calm   4 mph /  6.4 km/h 47 % 0 in /  0.0 mm
12:32 59.5 °F /  15.3 °C 39.4 °F /  4.1 °C 30.2 in /  1023.2 hPa NE 4 mph /  6.4 km/h 4 mph /  6.4 km/h 47 % 0 in /  0.0 mm
12:42 60.1 °F /  15.6 °C 39.7 °F /  4.3 °C 30.2 in /  1023.2 hPa East 3 mph /  4.8 km/h 6 mph /  9.7 km/h 47 % 0 in /  0.0 mm
12:52 61.2 °F /  16.2 °C 40.8 °F /  4.9 °C 30.2 in /  1023.2 hPa Calm   6 mph /  9.7 km/h 47 % 0 in /  0.0 mm
12:57 61.5 °F /  16.4 °C 40.5 °F /  4.7 °C 30.2 in /  1022.9 hPa Calm   6 mph /  9.7 km/h 46 % 0 in /  0.0 mm
13:02 61.3 °F /  16.3 °C 39.7 °F /  4.3 °C 30.2 in /  1022.9 hPa SSE 3 mph /  4.8 km/h 5 mph /  8.0 km/h 45 % 0 in /  0.0 mm
13:12 61 °F /  16.1 °C 40.1 °F /  4.5 °C 30.2 in /  1022.9 hPa ENE 4 mph /  6.4 km/h 5 mph /  8.0 km/h 46 % 0 in /  0.0 mm
13:17 61 °F /  16.1 °C 40.6 °F /  4.8 °C 30.2 in /  1022.9 hPa NNE 2 mph /  3.2 km/h 5 mph /  8.0 km/h 47 % 0 in /  0.0 mm
13:22 60.6 °F /  15.9 °C 40.3 °F /  4.6 °C 30.2 in /  1022.6 hPa ESE 2 mph /  3.2 km/h 5 mph /  8.0 km/h 47 % 0 in /  0.0 mm
13:32 61.2 °F /  16.2 °C 40.8 °F /  4.9 °C 30.2 in /  1022.6 hPa SSE 2 mph /  3.2 km/h 6 mph /  9.7 km/h 47 % 0 in /  0.0 mm
13:37 61.5 °F /  16.4 °C 40.5 °F /  4.7 °C 30.2 in /  1022.2 hPa ENE 2 mph /  3.2 km/h 6 mph /  9.7 km/h 46 % 0 in /  0.0 mm
13:42 61.2 °F /  16.2 °C 40.8 °F /  4.9 °C 30.2 in /  1022.2 hPa ENE 2 mph /  3.2 km/h 5 mph /  8.0 km/h 47 % 0 in /  0.0 mm
13:47 61 °F /  16.1 °C 40.6 °F /  4.8 °C 30.2 in /  1022.2 hPa Calm   5 mph /  8.0 km/h 47 % 0 in /  0.0 mm
13:52 61.7 °F /  16.5 °C 41.2 °F /  5.1 °C 30.2 in /  1022.2 hPa Calm   5 mph /  8.0 km/h 47 % 0 in /  0.0 mm
13:57 62.4 °F /  16.9 °C 39.6 °F /  4.2 °C 30.2 in /  1022.2 hPa SE 3 mph /  4.8 km/h 5 mph /  8.0 km/h 43 % 0 in /  0.0 mm
14:02 62.4 °F /  16.9 °C 39.6 °F /  4.2 °C 30.2 in /  1022.2 hPa SW 3 mph /  4.8 km/h 6 mph /  9.7 km/h 43 % 0 in /  0.0 mm
14:12 63 °F /  17.2 °C 41.9 °F /  5.5 °C 30.2 in /  1021.9 hPa SW 5 mph /  8.0 km/h 8 mph /  12.9 km/h 46 % 0 in /  0.0 mm
14:17 63.3 °F /  17.4 °C 41 °F /  5.0 °C 30.2 in /  1021.9 hPa West 2 mph /  3.2 km/h 8 mph /  12.9 km/h 44 % 0 in /  0.0 mm
14:22 63 °F /  17.2 °C 40.6 °F /  4.8 °C 30.2 in /  1021.9 hPa West 3 mph /  4.8 km/h 10 mph /  16.1 km/h 44 % 0 in /  0.0 mm
14:27 63 °F /  17.2 °C 41.9 °F /  5.5 °C 30.2 in /  1021.9 hPa SW 4 mph /  6.4 km/h 10 mph /  16.1 km/h 46 % 0 in /  0.0 mm
14:32 63 °F /  17.2 °C 42.4 °F /  5.8 °C 30.2 in /  1021.6 hPa ESE 3 mph /  4.8 km/h 10 mph /  16.1 km/h 47 % 0 in /  0.0 mm
14:37 63.1 °F /  17.3 °C 41.5 °F /  5.3 °C 30.2 in /  1021.6 hPa WSW 4 mph /  6.4 km/h 8 mph /  12.9 km/h 45 % 0 in /  0.0 mm
14:42 63.1 °F /  17.3 °C 41.5 °F /  5.3 °C 30.2 in /  1021.6 hPa South 4 mph /  6.4 km/h 8 mph /  12.9 km/h 45 % 0 in /  0.0 mm
14:47 63 °F /  17.2 °C 41.4 °F /  5.2 °C 30.2 in /  1021.6 hPa WSW 4 mph /  6.4 km/h 8 mph /  12.9 km/h 45 % 0 in /  0.0 mm
14:52 63 °F /  17.2 °C 42.4 °F /  5.8 °C 30.2 in /  1021.6 hPa SW 4 mph /  6.4 km/h 10 mph /  16.1 km/h 47 % 0 in /  0.0 mm
14:57 62.8 °F /  17.1 °C 41.7 °F /  5.4 °C 30.2 in /  1021.6 hPa SW 2 mph /  3.2 km/h 10 mph /  16.1 km/h 46 % 0 in /  0.0 mm
15:02 63.1 °F /  17.3 °C 41.5 °F /  5.3 °C 30.2 in /  1021.6 hPa SW 5 mph /  8.0 km/h 9 mph /  14.5 km/h 45 % 0 in /  0.0 mm
15:12 63.5 °F /  17.5 °C 43 °F /  6.1 °C 30.2 in /  1021.2 hPa SSW 2 mph /  3.2 km/h 9 mph /  14.5 km/h 47 % 0 in /  0.0 mm
15:22 63.7 °F /  17.6 °C 41.4 °F /  5.2 °C 30.2 in /  1021.2 hPa East 1 mph /  1.6 km/h 8 mph /  12.9 km/h 44 % 0 in /  0.0 mm
15:32 64.4 °F /  18.0 °C 42.6 °F /  5.9 °C 30.2 in /  1020.9 hPa SSE 5 mph /  8.0 km/h 8 mph /  12.9 km/h 45 % 0 in /  0.0 mm
15:37 64.8 °F /  18.2 °C 42.3 °F /  5.7 °C 30.2 in /  1020.9 hPa SSW 8 mph /  12.9 km/h 9 mph /  14.5 km/h 44 % 0 in /  0.0 mm
15:42 64.6 °F /  18.1 °C 41.5 °F /  5.3 °C 30.2 in /  1020.9 hPa SW 2 mph /  3.2 km/h 9 mph /  14.5 km/h 43 % 0 in /  0.0 mm
15:52 64.9 °F /  18.3 °C 43.7 °F /  6.5 °C 30.1 in /  1020.5 hPa ESE 7 mph /  11.3 km/h 8 mph /  12.9 km/h 46 % 0 in /  0.0 mm
15:57 64.9 °F /  18.3 °C 43.7 °F /  6.5 °C 30.1 in /  1020.5 hPa South 3 mph /  4.8 km/h 9 mph /  14.5 km/h 46 % 0 in /  0.0 mm
16:02 64.8 °F /  18.2 °C 41.7 °F /  5.4 °C 30.1 in /  1020.5 hPa SW 4 mph /  6.4 km/h 9 mph /  14.5 km/h 43 % 0 in /  0.0 mm
16:12 64.8 °F /  18.2 °C 42.3 °F /  5.7 °C 30.1 in /  1020.2 hPa SSW 2 mph /  3.2 km/h 12 mph /  19.3 km/h 44 % 0 in /  0.0 mm
16:17 64.8 °F /  18.2 °C 43 °F /  6.1 °C 30.1 in /  1020.2 hPa SSW 1 mph /  1.6 km/h 12 mph /  19.3 km/h 45 % 0 in /  0.0 mm
16:22 64.9 °F /  18.3 °C 41.9 °F /  5.5 °C 30.1 in /  1020.2 hPa SW 11 mph /  17.7 km/h 11 mph /  17.7 km/h 43 % 0 in /  0.0 mm
16:27 65.3 °F /  18.5 °C 42.3 °F /  5.7 °C 30.1 in /  1020.2 hPa SW 8 mph /  12.9 km/h 13 mph /  20.9 km/h 43 % 0 in /  0.0 mm
16:32 65.5 °F /  18.6 °C 41.2 °F /  5.1 °C 30.1 in /  1020.2 hPa SSW 7 mph /  11.3 km/h 13 mph /  20.9 km/h 41 % 0 in /  0.0 mm
16:37 65.3 °F /  18.5 °C 42.3 °F /  5.7 °C 30.1 in /  1019.9 hPa SE 3 mph /  4.8 km/h 13 mph /  20.9 km/h 43 % 0 in /  0.0 mm
16:42 65.5 °F /  18.6 °C 41.7 °F /  5.4 °C 30.1 in /  1019.9 hPa SE 1 mph /  1.6 km/h 13 mph /  20.9 km/h 42 % 0 in /  0.0 mm
16:47 65.8 °F /  18.8 °C 42.8 °F /  6.0 °C 30.1 in /  1019.9 hPa South 7 mph /  11.3 km/h 13 mph /  20.9 km/h 43 % 0 in /  0.0 mm
16:52 65.5 °F /  18.6 °C 41.7 °F /  5.4 °C 30.1 in /  1019.9 hPa West 1 mph /  1.6 km/h 9 mph /  14.5 km/h 42 % 0 in /  0.0 mm
16:57 65.5 °F /  18.6 °C 41.7 °F /  5.4 °C 30.1 in /  1019.9 hPa NW 2 mph /  3.2 km/h 9 mph /  14.5 km/h 42 % 0 in /  0.0 mm
17:02 65.7 °F /  18.7 °C 42.6 °F /  5.9 °C 30.1 in /  1019.9 hPa NW 3 mph /  4.8 km/h 8 mph /  12.9 km/h 43 % 0 in /  0.0 mm
17:07 66 °F /  18.9 °C 42.8 °F /  6.0 °C 30.1 in /  1019.5 hPa WSW 4 mph /  6.4 km/h 9 mph /  14.5 km/h 43 % 0 in /  0.0 mm
17:12 65.8 °F /  18.8 °C 43.3 °F /  6.3 °C 30.1 in /  1019.5 hPa Calm   10 mph /  16.1 km/h 44 % 0 in /  0.0 mm
17:17 65.8 °F /  18.8 °C 42.8 °F /  6.0 °C 30.1 in /  1019.5 hPa WSW 2 mph /  3.2 km/h 10 mph /  16.1 km/h 43 % 0 in /  0.0 mm
17:22 66 °F /  18.9 °C 43.5 °F /  6.4 °C 30.1 in /  1019.5 hPa WNW 6 mph /  9.7 km/h 10 mph /  16.1 km/h 44 % 0 in /  0.0 mm
17:27 65.7 °F /  18.7 °C 42.6 °F /  5.9 °C 30.1 in /  1019.5 hPa WSW 3 mph /  4.8 km/h 8 mph /  12.9 km/h 43 % 0 in /  0.0 mm
17:32 65.8 °F /  18.8 °C 42.8 °F /  6.0 °C 30.1 in /  1019.5 hPa WSW 9 mph /  14.5 km/h 9 mph /  14.5 km/h 43 % 0 in /  0.0 mm
17:37 65.8 °F /  18.8 °C 43.3 °F /  6.3 °C 30.1 in /  1019.5 hPa WNW 3 mph /  4.8 km/h 10 mph /  16.1 km/h 44 % 0 in /  0.0 mm
17:42 66.4 °F /  19.1 °C 43.9 °F /  6.6 °C 30.1 in /  1019.5 hPa WNW 4 mph /  6.4 km/h 10 mph /  16.1 km/h 44 % 0 in /  0.0 mm
17:47 66 °F /  18.9 °C 42.3 °F /  5.7 °C 30.1 in /  1019.5 hPa WSW 3 mph /  4.8 km/h 9 mph /  14.5 km/h 42 % 0 in /  0.0 mm
17:52 66 °F /  18.9 °C 43.5 °F /  6.4 °C 30.1 in /  1019.5 hPa SW 5 mph /  8.0 km/h 9 mph /  14.5 km/h 44 % 0 in /  0.0 mm
17:57 66.2 °F /  19.0 °C 43.7 °F /  6.5 °C 30.1 in /  1019.2 hPa WNW 8 mph /  12.9 km/h 9 mph /  14.5 km/h 44 % 0 in /  0.0 mm
18:02 66.2 °F /  19.0 °C 43 °F /  6.1 °C 30.1 in /  1019.2 hPa West 8 mph /  12.9 km/h 10 mph /  16.1 km/h 43 % 0 in /  0.0 mm
18:12 66.2 °F /  19.0 °C 43 °F /  6.1 °C 30.1 in /  1019.2 hPa WSW 5 mph /  8.0 km/h 10 mph /  16.1 km/h 43 % 0 in /  0.0 mm
18:22 66.4 °F /  19.1 °C 43.2 °F /  6.2 °C 30.1 in /  1019.2 hPa SW 3 mph /  4.8 km/h 9 mph /  14.5 km/h 43 % 0 in /  0.0 mm
18:27 66.4 °F /  19.1 °C 43.9 °F /  6.6 °C 30.1 in /  1019.2 hPa West 9 mph /  14.5 km/h 9 mph /  14.5 km/h 44 % 0 in /  0.0 mm
18:32 66.2 °F /  19.0 °C 43.7 °F /  6.5 °C 30.1 in /  1019.2 hPa West 6 mph /  9.7 km/h 9 mph /  14.5 km/h 44 % 0 in /  0.0 mm
18:42 66.2 °F /  19.0 °C 43 °F /  6.1 °C 30.1 in /  1018.8 hPa SW 5 mph /  8.0 km/h 13 mph /  20.9 km/h 43 % 0 in /  0.0 mm
18:47 66.2 °F /  19.0 °C 43.7 °F /  6.5 °C 30.1 in /  1018.8 hPa SSW 5 mph /  8.0 km/h 13 mph /  20.9 km/h 44 % 0 in /  0.0 mm
18:52 66 °F /  18.9 °C 42.8 °F /  6.0 °C 30.1 in /  1018.8 hPa West 4 mph /  6.4 km/h 13 mph /  20.9 km/h 43 % 0 in /  0.0 mm
18:57 66 °F /  18.9 °C 42.8 °F /  6.0 °C 30.1 in /  1018.8 hPa WSW 3 mph /  4.8 km/h 11 mph /  17.7 km/h 43 % 0 in /  0.0 mm
19:02 65.8 °F /  18.8 °C 42.8 °F /  6.0 °C 30.1 in /  1018.8 hPa SSW 5 mph /  8.0 km/h 11 mph /  17.7 km/h 43 % 0 in /  0.0 mm
19:12 65.7 °F /  18.7 °C 42.6 °F /  5.9 °C 30.1 in /  1018.8 hPa SSW 6 mph /  9.7 km/h 11 mph /  17.7 km/h 43 % 0 in /  0.0 mm
19:17 65.7 °F /  18.7 °C 42.6 °F /  5.9 °C 30.1 in /  1018.8 hPa WSW 7 mph /  11.3 km/h 10 mph /  16.1 km/h 43 % 0 in /  0.0 mm
19:22 65.5 °F /  18.6 °C 43 °F /  6.1 °C 30.1 in /  1018.8 hPa SW 3 mph /  4.8 km/h 12 mph /  19.3 km/h 44 % 0 in /  0.0 mm
19:32 65.1 °F /  18.4 °C 43.3 °F /  6.3 °C 30.1 in /  1018.8 hPa SSW 5 mph /  8.0 km/h 12 mph /  19.3 km/h 45 % 0 in /  0.0 mm
19:37 64.9 °F /  18.3 °C 43.7 °F /  6.5 °C 30.1 in /  1018.8 hPa SW 5 mph /  8.0 km/h 10 mph /  16.1 km/h 46 % 0 in /  0.0 mm
19:42 64.9 °F /  18.3 °C 43.7 °F /  6.5 °C 30.1 in /  1018.8 hPa WSW 2 mph /  3.2 km/h 10 mph /  16.1 km/h 46 % 0 in /  0.0 mm
19:47 64.8 °F /  18.2 °C 43.5 °F /  6.4 °C 30.1 in /  1018.5 hPa WSW 4 mph /  6.4 km/h 9 mph /  14.5 km/h 46 % 0 in /  0.0 mm
19:52 64.4 °F /  18.0 °C 43.2 °F /  6.2 °C 30.1 in /  1018.8 hPa West 4 mph /  6.4 km/h 7 mph /  11.3 km/h 46 % 0 in /  0.0 mm
19:57 63.9 °F /  17.7 °C 42.6 °F /  5.9 °C 30.1 in /  1018.8 hPa WSW 5 mph /  8.0 km/h 10 mph /  16.1 km/h 46 % 0 in /  0.0 mm
20:02 63.5 °F /  17.5 °C 43 °F /  6.1 °C 30.1 in /  1018.8 hPa West 5 mph /  8.0 km/h 13 mph /  20.9 km/h 47 % 0 in /  0.0 mm
20:07 63 °F /  17.2 °C 43 °F /  6.1 °C 30.1 in /  1018.8 hPa WSW 5 mph /  8.0 km/h 13 mph /  20.9 km/h 48 % 0 in /  0.0 mm
20:12 62.6 °F /  17.0 °C 43.2 °F /  6.2 °C 30.1 in /  1018.8 hPa West 4 mph /  6.4 km/h 13 mph /  20.9 km/h 49 % 0 in /  0.0 mm
20:22 61.9 °F /  16.6 °C 43.5 °F /  6.4 °C 30.1 in /  1018.8 hPa West 2 mph /  3.2 km/h 9 mph /  14.5 km/h 51 % 0 in /  0.0 mm
20:32 61.2 °F /  16.2 °C 43.9 °F /  6.6 °C 30.1 in /  1018.8 hPa WSW 6 mph /  9.7 km/h 8 mph /  12.9 km/h 53 % 0 in /  0.0 mm
20:37 61 °F /  16.1 °C 43.7 °F /  6.5 °C 30.1 in /  1018.8 hPa West 4 mph /  6.4 km/h 8 mph /  12.9 km/h 53 % 0 in /  0.0 mm
20:47 60.1 °F /  15.6 °C 43.9 °F /  6.6 °C 30.1 in /  1018.8 hPa West 3 mph /  4.8 km/h 6 mph /  9.7 km/h 55 % 0 in /  0.0 mm
20:52 59.9 °F /  15.5 °C 44.2 °F /  6.8 °C 30.1 in /  1018.8 hPa WSW 4 mph /  6.4 km/h 6 mph /  9.7 km/h 56 % 0 in /  0.0 mm
21:02 59.2 °F /  15.1 °C 44.4 °F /  6.9 °C 30.1 in /  1018.8 hPa WSW 5 mph /  8.0 km/h 6 mph /  9.7 km/h 58 % 0 in /  0.0 mm
21:12 58.3 °F /  14.6 °C 44.4 °F /  6.9 °C 30.1 in /  1019.2 hPa West 2 mph /  3.2 km/h 6 mph /  9.7 km/h 60 % 0 in /  0.0 mm
21:17 57.9 °F /  14.4 °C 44.1 °F /  6.7 °C 30.1 in /  1019.2 hPa WSW 4 mph /  6.4 km/h 6 mph /  9.7 km/h 60 % 0 in /  0.0 mm
21:22 57.9 °F /  14.4 °C 44.1 °F /  6.7 °C 30.1 in /  1019.2 hPa West 1 mph /  1.6 km/h 5 mph /  8.0 km/h 60 % 0 in /  0.0 mm
21:32 57.7 °F /  14.3 °C 43.9 °F /  6.6 °C 30.1 in /  1019.2 hPa WSW 2 mph /  3.2 km/h 5 mph /  8.0 km/h 60 % 0 in /  0.0 mm
21:37 57.6 °F /  14.2 °C 44.2 °F /  6.8 °C 30.1 in /  1019.2 hPa WNW 3 mph /  4.8 km/h 4 mph /  6.4 km/h 61 % 0 in /  0.0 mm
21:47 56.3 °F /  13.5 °C 43.9 °F /  6.6 °C 30.1 in /  1019.5 hPa NNW 1 mph /  1.6 km/h 4 mph /  6.4 km/h 63 % 0 in /  0.0 mm
21:57 56.5 °F /  13.6 °C 43.2 °F /  6.2 °C 30.1 in /  1019.5 hPa NW 2 mph /  3.2 km/h 4 mph /  6.4 km/h 61 % 0 in /  0.0 mm
22:02 56.5 °F /  13.6 °C 42.8 °F /  6.0 °C 30.1 in /  1019.5 hPa WNW 1 mph /  1.6 km/h 4 mph /  6.4 km/h 60 % 0 in /  0.0 mm
22:12 56.5 °F /  13.6 °C 42.8 °F /  6.0 °C 30.1 in /  1019.5 hPa WNW 1 mph /  1.6 km/h 5 mph /  8.0 km/h 60 % 0 in /  0.0 mm
22:17 56.1 °F /  13.4 °C 42.4 °F /  5.8 °C 30.1 in /  1019.5 hPa WNW 2 mph /  3.2 km/h 5 mph /  8.0 km/h 60 % 0 in /  0.0 mm
22:22 56.1 °F /  13.4 °C 42.4 °F /  5.8 °C 30.1 in /  1019.5 hPa WNW 1 mph /  1.6 km/h 5 mph /  8.0 km/h 60 % 0 in /  0.0 mm
22:32 56.1 °F /  13.4 °C 41.9 °F /  5.5 °C 30.1 in /  1019.5 hPa WNW 1 mph /  1.6 km/h 5 mph /  8.0 km/h 59 % 0 in /  0.0 mm
22:37 56.1 °F /  13.4 °C 41.9 °F /  5.5 °C 30.1 in /  1019.5 hPa WNW 2 mph /  3.2 km/h 5 mph /  8.0 km/h 59 % 0 in /  0.0 mm
22:42 55.9 °F /  13.3 °C 41.9 °F /  5.5 °C 30.1 in /  1019.5 hPa NW 2 mph /  3.2 km/h 5 mph /  8.0 km/h 59 % 0 in /  0.0 mm
22:47 55.9 °F /  13.3 °C 42.3 °F /  5.7 °C 30.1 in /  1019.5 hPa WNW 3 mph /  4.8 km/h 5 mph /  8.0 km/h 60 % 0 in /  0.0 mm
22:52 55.9 °F /  13.3 °C 42.3 °F /  5.7 °C 30.1 in /  1019.5 hPa WNW 1 mph /  1.6 km/h 4 mph /  6.4 km/h 60 % 0 in /  0.0 mm
22:57 55.8 °F /  13.2 °C 42.1 °F /  5.6 °C 30.1 in /  1019.5 hPa Calm   3 mph /  4.8 km/h 60 % 0 in /  0.0 mm
23:02 55.6 °F /  13.1 °C 42.3 °F /  5.7 °C 30.1 in /  1019.5 hPa NW 1 mph /  1.6 km/h 3 mph /  4.8 km/h 61 % 0 in /  0.0 mm
23:07 55.6 °F /  13.1 °C 42.3 °F /  5.7 °C 30.1 in /  1019.5 hPa West 1 mph /  1.6 km/h 3 mph /  4.8 km/h 61 % 0 in /  0.0 mm
23:17 54.7 °F /  12.6 °C 41.9 °F /  5.5 °C 30.1 in /  1019.5 hPa Calm   3 mph /  4.8 km/h 62 % 0 in /  0.0 mm
23:22 54.5 °F /  12.5 °C 42.1 °F /  5.6 °C 30.1 in /  1019.5 hPa Calm   2 mph /  3.2 km/h 63 % 0 in /  0.0 mm
23:32 54.1 °F /  12.3 °C 42.3 °F /  5.7 °C 30.1 in /  1019.5 hPa WNW 2 mph /  3.2 km/h 2 mph /  3.2 km/h 64 % 0 in /  0.0 mm
23:37 54 °F /  12.2 °C 42.1 °F /  5.6 °C 30.1 in /  1019.5 hPa WNW 3 mph /  4.8 km/h 3 mph /  4.8 km/h 64 % 0 in /  0.0 mm
23:42 54 °F /  12.2 °C 42.1 °F /  5.6 °C 30.1 in /  1019.5 hPa WNW 2 mph /  3.2 km/h 3 mph /  4.8 km/h 64 % 0 in /  0.0 mm
23:47 53.8 °F /  12.1 °C 42.3 °F /  5.7 °C 30.1 in /  1019.5 hPa West 2 mph /  3.2 km/h 4 mph /  6.4 km/h 65 % 0 in /  0.0 mm
23:52 53.8 °F /  12.1 °C 42.3 °F /  5.7 °C 30.1 in /  1019.5 hPa WNW 2 mph /  3.2 km/h 4 mph /  6.4 km/h 65 % 0 in /  0.0 mm
23:57 53.8 °F /  12.1 °C 42.3 °F /  5.7 °C 30.1 in /  1019.5 hPa West 1 mph /  1.6 km/h 4 mph /  6.4 km/h 65 % 0 in /  0.0 mm
Meteo18
Compliments of Weather Underground - 4 mb

Script developed by  Jim McMurry - jmcmurry@mwt.net Adapted for the template by  Wim van der Kuil - Leuven-Template.eu

You find our weather info also at:

European Weather Network

Weather Underground

Equipment we use:

Weather-station
Davis Vue

Weather-program
Meteohub

Weather-server
Raspberry PI 2 B+

Provider
1 and 1

Davis Vue

Meteohub

Raspberry PI 2 B+

1 and 1